sensor_id;sensor_type;location;lat;lon;timestamp;temperature;humidity
24814;DHT22;12904;50.088;11.414;2024-01-15T00:02:12;-2.30;99.90
24814;DHT22;12904;50.088;11.414;2024-01-15T00:04:41;-2.40;99.90
24814;DHT22;12904;50.088;11.414;2024-01-15T00:07:07;-2.40;99.90
24814;DHT22;12904;50.088;11.414;2024-01-15T00:09:33;-2.50;99.90
24814;DHT22;12904;50.088;11.414;2024-01-15T00:11:59;-2.50;99.90
24814;DHT22;12904;50.088;11.414;2024-01-15T00:14:25;-2.50;99.90
24814;DHT22;12904;50.088;11.414;2024-01-15T00:16:51;-2.60;99.90
24814;DHT22;12904;50.088;11.414;2024-01-15T00:19:17;-2.70;99.90
24814;DHT22;12904;50.088;11.414;2024-01-15T00:21:44;-2.60;99.90
24814;DHT22;12904;50.088;11.414;2024-01-15T00:24:09;-2.70;99.90
24814;DHT22;12904;50.088;11.414;2024-01-15T00:26:35;-2.60;99.90
24814;DHT22;12904;50.088;11.414;2024-01-15T00:29:00;-2.60;99.90
24814;DHT22;12904;50.088;11.414;2024-01-15T00:31:26;-2.60;99.90
24814;DHT22;12904;50.088;11.414;2024-01-15T00:33:52;-2.70;99.90
24814;DHT22;12904;50.088;11.414;2024-01-15T00:36:17;-2.70;99.90
24814;DHT22;12904;50.088;11.414;2024-01-15T00:38:46;-2.70;99.90
24814;DHT22;12904;50.088;11.414;2024-01-15T00:41:13;-2.70;99.90
24814;DHT22;12904;50.088;11.414;2024-01-15T00:43:38;-2.70;99.90
24814;DHT22;12904;50.088;11.414;2024-01-15T00:46:05;-2.70;99.90
24814;DHT22;12904;50.088;11.414;2024-01-15T00:48:31;-2.70;99.90
24814;DHT22;12904;50.088;11.414;2024-01-15T00:50:57;-2.70;99.90
24814;DHT22;12904;50.088;11.414;2024-01-15T00:53:22;-2.70;99.90
24814;DHT22;12904;50.088;11.414;2024-01-15T00:55:48;-2.70;99.90
24814;DHT22;12904;50.088;11.414;2024-01-15T00:58:14;-2.70;99.90
24814;DHT22;12904;50.088;11.414;2024-01-15T01:00:40;-2.70;99.90
24814;DHT22;12904;50.088;11.414;2024-01-15T01:03:06;-2.70;99.90
24814;DHT22;12904;50.088;11.414;2024-01-15T01:05:33;-2.70;99.90
24814;DHT22;12904;50.088;11.414;2024-01-15T01:07:58;-2.70;99.90
24814;DHT22;12904;50.088;11.414;2024-01-15T01:10:24;-2.70;99.90
24814;DHT22;12904;50.088;11.414;2024-01-15T01:12:49;-2.70;99.90
24814;DHT22;12904;50.088;11.414;2024-01-15T01:15:15;-2.80;99.90
24814;DHT22;12904;50.088;11.414;2024-01-15T01:17:41;-2.80;99.90
24814;DHT22;12904;50.088;11.414;2024-01-15T01:20:07;-2.80;99.90
24814;DHT22;12904;50.088;11.414;2024-01-15T01:22:34;-2.80;99.90
24814;DHT22;12904;50.088;11.414;2024-01-15T01:25:00;-2.80;99.90
24814;DHT22;12904;50.088;11.414;2024-01-15T01:27:26;-2.80;99.90
24814;DHT22;12904;50.088;11.414;2024-01-15T01:29:51;-2.80;99.90
24814;DHT22;12904;50.088;11.414;2024-01-15T01:32:17;-2.80;99.90
24814;DHT22;12904;50.088;11.414;2024-01-15T01:34:43;-2.80;99.90
24814;DHT22;12904;50.088;11.414;2024-01-15T01:37:09;-2.80;99.90
24814;DHT22;12904;50.088;11.414;2024-01-15T01:39:35;-2.80;99.90
24814;DHT22;12904;50.088;11.414;2024-01-15T01:42:01;-2.80;99.90
24814;DHT22;12904;50.088;11.414;2024-01-15T01:44:26;-2.80;99.90
24814;DHT22;12904;50.088;11.414;2024-01-15T01:46:52;-2.80;99.90
24814;DHT22;12904;50.088;11.414;2024-01-15T01:49:18;-2.80;99.90
24814;DHT22;12904;50.088;11.414;2024-01-15T01:51:44;-2.80;99.90
24814;DHT22;12904;50.088;11.414;2024-01-15T01:54:11;-2.80;99.90
24814;DHT22;12904;50.088;11.414;2024-01-15T01:56:40;-2.80;99.90
24814;DHT22;12904;50.088;11.414;2024-01-15T01:59:06;-2.80;99.90
24814;DHT22;12904;50.088;11.414;2024-01-15T02:01:32;-2.80;99.90
24814;DHT22;12904;50.088;11.414;2024-01-15T02:03:59;-2.80;99.90
24814;DHT22;12904;50.088;11.414;2024-01-15T02:06:25;-2.70;99.90
24814;DHT22;12904;50.088;11.414;2024-01-15T02:08:51;-2.70;99.90
24814;DHT22;12904;50.088;11.414;2024-01-15T02:11:17;-2.70;99.90
24814;DHT22;12904;50.088;11.414;2024-01-15T02:13:43;-2.70;99.90
24814;DHT22;12904;50.088;11.414;2024-01-15T02:16:08;-2.70;99.90
24814;DHT22;12904;50.088;11.414;2024-01-15T02:18:41;-2.70;99.90
24814;DHT22;12904;50.088;11.414;2024-01-15T02:21:07;-2.60;99.90
24814;DHT22;12904;50.088;11.414;2024-01-15T02:23:32;-2.60;99.90
24814;DHT22;12904;50.088;11.414;2024-01-15T02:25:58;-2.70;99.90
24814;DHT22;12904;50.088;11.414;2024-01-15T02:28:24;-2.70;99.90
24814;DHT22;12904;50.088;11.414;2024-01-15T02:30:49;-2.60;99.90
24814;DHT22;12904;50.088;11.414;2024-01-15T02:33:15;-2.60;99.90
24814;DHT22;12904;50.088;11.414;2024-01-15T02:35:41;-2.70;99.90
24814;DHT22;12904;50.088;11.414;2024-01-15T02:38:07;-2.70;99.90
24814;DHT22;12904;50.088;11.414;2024-01-15T02:40:33;-2.70;99.90
24814;DHT22;12904;50.088;11.414;2024-01-15T02:42:59;-2.70;99.90
24814;DHT22;12904;50.088;11.414;2024-01-15T02:45:25;-2.70;99.90
24814;DHT22;12904;50.088;11.414;2024-01-15T02:47:50;-2.70;99.90
24814;DHT22;12904;50.088;11.414;2024-01-15T02:50:16;-2.70;99.90
24814;DHT22;12904;50.088;11.414;2024-01-15T02:52:42;-2.70;99.90
24814;DHT22;12904;50.088;11.414;2024-01-15T02:55:08;-2.70;99.90
24814;DHT22;12904;50.088;11.414;2024-01-15T02:57:34;-2.70;99.90
24814;DHT22;12904;50.088;11.414;2024-01-15T03:00:00;-2.70;99.90
24814;DHT22;12904;50.088;11.414;2024-01-15T03:02:25;-2.70;99.90
24814;DHT22;12904;50.088;11.414;2024-01-15T03:04:51;-2.70;99.90
24814;DHT22;12904;50.088;11.414;2024-01-15T03:07:17;-2.60;99.90
24814;DHT22;12904;50.088;11.414;2024-01-15T03:09:43;-2.60;99.90
24814;DHT22;12904;50.088;11.414;2024-01-15T03:12:08;-2.60;99.90
24814;DHT22;12904;50.088;11.414;2024-01-15T03:14:35;-2.70;99.90
24814;DHT22;12904;50.088;11.414;2024-01-15T03:17:00;-2.70;99.90
24814;DHT22;12904;50.088;11.414;2024-01-15T03:19:26;-2.70;99.90
24814;DHT22;12904;50.088;11.414;2024-01-15T03:21:52;-2.70;99.90
24814;DHT22;12904;50.088;11.414;2024-01-15T03:24:18;-2.60;99.90
24814;DHT22;12904;50.088;11.414;2024-01-15T03:26:43;-2.60;99.90
24814;DHT22;12904;50.088;11.414;2024-01-15T03:29:09;-2.60;99.90
24814;DHT22;12904;50.088;11.414;2024-01-15T03:31:35;-2.60;99.90
24814;DHT22;12904;50.088;11.414;2024-01-15T03:34:00;-2.60;99.90
24814;DHT22;12904;50.088;11.414;2024-01-15T03:36:26;-2.60;99.90
24814;DHT22;12904;50.088;11.414;2024-01-15T03:38:51;-2.60;99.90
24814;DHT22;12904;50.088;11.414;2024-01-15T03:41:17;-2.60;99.90
24814;DHT22;12904;50.088;11.414;2024-01-15T03:43:43;-2.50;99.90
24814;DHT22;12904;50.088;11.414;2024-01-15T03:46:08;-2.50;99.90
24814;DHT22;12904;50.088;11.414;2024-01-15T03:48:34;-2.50;99.90
24814;DHT22;12904;50.088;11.414;2024-01-15T03:51:00;-2.50;99.90
24814;DHT22;12904;50.088;11.414;2024-01-15T03:53:25;-2.50;99.90
24814;DHT22;12904;50.088;11.414;2024-01-15T03:55:51;-2.50;99.90
24814;DHT22;12904;50.088;11.414;2024-01-15T03:58:17;-2.40;99.90
24814;DHT22;12904;50.088;11.414;2024-01-15T04:00:43;-2.40;99.90
24814;DHT22;12904;50.088;11.414;2024-01-15T04:03:09;-2.40;99.90
24814;DHT22;12904;50.088;11.414;2024-01-15T04:05:34;-2.40;99.90
24814;DHT22;12904;50.088;11.414;2024-01-15T04:08:00;-2.40;99.90
24814;DHT22;12904;50.088;11.414;2024-01-15T04:10:26;-2.40;99.90
24814;DHT22;12904;50.088;11.414;2024-01-15T04:12:51;-2.40;99.90
24814;DHT22;12904;50.088;11.414;2024-01-15T04:15:17;-2.40;99.90
24814;DHT22;12904;50.088;11.414;2024-01-15T04:17:43;-2.40;99.90
24814;DHT22;12904;50.088;11.414;2024-01-15T04:20:09;-2.40;99.90
24814;DHT22;12904;50.088;11.414;2024-01-15T04:22:35;-2.40;99.90
24814;DHT22;12904;50.088;11.414;2024-01-15T04:25:01;-2.40;99.90
24814;DHT22;12904;50.088;11.414;2024-01-15T04:27:27;-2.40;99.90
24814;DHT22;12904;50.088;11.414;2024-01-15T04:29:52;-2.40;99.90
24814;DHT22;12904;50.088;11.414;2024-01-15T04:32:18;-2.40;99.90
24814;DHT22;12904;50.088;11.414;2024-01-15T04:34:44;-2.40;99.90
24814;DHT22;12904;50.088;11.414;2024-01-15T04:37:10;-2.40;99.90
24814;DHT22;12904;50.088;11.414;2024-01-15T04:39:35;-2.40;99.90
24814;DHT22;12904;50.088;11.414;2024-01-15T04:42:01;-2.40;99.90
24814;DHT22;12904;50.088;11.414;2024-01-15T04:44:27;-2.40;99.90
24814;DHT22;12904;50.088;11.414;2024-01-15T04:46:52;-2.40;99.90
24814;DHT22;12904;50.088;11.414;2024-01-15T04:49:18;-2.30;99.90
24814;DHT22;12904;50.088;11.414;2024-01-15T04:51:44;-2.40;99.90
24814;DHT22;12904;50.088;11.414;2024-01-15T04:54:09;-2.30;99.90
24814;DHT22;12904;50.088;11.414;2024-01-15T04:56:35;-2.30;99.90
24814;DHT22;12904;50.088;11.414;2024-01-15T04:59:00;-2.40;99.90
24814;DHT22;12904;50.088;11.414;2024-01-15T05:01:31;-2.30;99.90
24814;DHT22;12904;50.088;11.414;2024-01-15T05:03:56;-2.30;99.90
24814;DHT22;12904;50.088;11.414;2024-01-15T05:06:22;-2.30;99.90
24814;DHT22;12904;50.088;11.414;2024-01-15T05:08:47;-2.30;99.90
24814;DHT22;12904;50.088;11.414;2024-01-15T05:11:13;-2.30;99.90
24814;DHT22;12904;50.088;11.414;2024-01-15T05:13:39;-2.30;99.90
24814;DHT22;12904;50.088;11.414;2024-01-15T05:16:04;-2.30;99.90
24814;DHT22;12904;50.088;11.414;2024-01-15T05:18:30;-2.30;99.90
24814;DHT22;12904;50.088;11.414;2024-01-15T05:20:55;-2.30;99.90
24814;DHT22;12904;50.088;11.414;2024-01-15T05:23:21;-2.30;99.90
24814;DHT22;12904;50.088;11.414;2024-01-15T05:25:47;-2.30;99.90
24814;DHT22;12904;50.088;11.414;2024-01-15T05:28:13;-2.30;99.90
24814;DHT22;12904;50.088;11.414;2024-01-15T05:30:39;-2.30;99.90
24814;DHT22;12904;50.088;11.414;2024-01-15T05:33:04;-2.30;99.90
24814;DHT22;12904;50.088;11.414;2024-01-15T05:35:30;-2.30;99.90
24814;DHT22;12904;50.088;11.414;2024-01-15T05:37:56;-2.30;99.90
24814;DHT22;12904;50.088;11.414;2024-01-15T05:40:21;-2.20;99.90
24814;DHT22;12904;50.088;11.414;2024-01-15T05:42:47;-2.30;99.90
24814;DHT22;12904;50.088;11.414;2024-01-15T05:45:13;-2.30;99.90
24814;DHT22;12904;50.088;11.414;2024-01-15T05:47:38;-2.30;99.90
24814;DHT22;12904;50.088;11.414;2024-01-15T05:50:04;-2.20;99.90
24814;DHT22;12904;50.088;11.414;2024-01-15T05:52:30;-2.30;99.90
24814;DHT22;12904;50.088;11.414;2024-01-15T05:54:55;-2.30;99.90
24814;DHT22;12904;50.088;11.414;2024-01-15T05:57:22;-2.20;99.90
24814;DHT22;12904;50.088;11.414;2024-01-15T05:59:48;-2.30;99.90
24814;DHT22;12904;50.088;11.414;2024-01-15T06:02:14;-2.20;99.90
24814;DHT22;12904;50.088;11.414;2024-01-15T06:04:39;-2.20;99.90
24814;DHT22;12904;50.088;11.414;2024-01-15T06:07:05;-2.20;99.90
24814;DHT22;12904;50.088;11.414;2024-01-15T06:09:31;-2.20;99.90
24814;DHT22;12904;50.088;11.414;2024-01-15T06:11:57;-2.20;99.90
24814;DHT22;12904;50.088;11.414;2024-01-15T06:14:22;-2.10;99.90
24814;DHT22;12904;50.088;11.414;2024-01-15T06:16:48;-2.10;99.90
24814;DHT22;12904;50.088;11.414;2024-01-15T06:19:14;-2.10;99.90
24814;DHT22;12904;50.088;11.414;2024-01-15T06:21:40;-2.10;99.90
24814;DHT22;12904;50.088;11.414;2024-01-15T06:24:06;-2.00;99.90
24814;DHT22;12904;50.088;11.414;2024-01-15T06:26:31;-2.00;99.90
24814;DHT22;12904;50.088;11.414;2024-01-15T06:28:57;-2.00;99.90
24814;DHT22;12904;50.088;11.414;2024-01-15T06:31:23;-2.00;99.90
24814;DHT22;12904;50.088;11.414;2024-01-15T06:33:48;-1.90;99.90
24814;DHT22;12904;50.088;11.414;2024-01-15T06:36:14;-1.90;99.90
24814;DHT22;12904;50.088;11.414;2024-01-15T06:38:43;-1.90;99.90
24814;DHT22;12904;50.088;11.414;2024-01-15T06:41:09;-1.90;99.90
24814;DHT22;12904;50.088;11.414;2024-01-15T06:43:35;-1.90;99.90
24814;DHT22;12904;50.088;11.414;2024-01-15T06:46:00;-1.90;99.90
24814;DHT22;12904;50.088;11.414;2024-01-15T06:48:26;-1.90;99.90
24814;DHT22;12904;50.088;11.414;2024-01-15T06:50:52;-1.80;99.90
24814;DHT22;12904;50.088;11.414;2024-01-15T06:53:17;-1.80;99.90
24814;DHT22;12904;50.088;11.414;2024-01-15T06:55:43;-1.80;99.90
24814;DHT22;12904;50.088;11.414;2024-01-15T06:58:09;-1.80;99.90
24814;DHT22;12904;50.088;11.414;2024-01-15T07:00:34;-1.80;99.90
24814;DHT22;12904;50.088;11.414;2024-01-15T07:03:00;-1.80;99.90
24814;DHT22;12904;50.088;11.414;2024-01-15T07:05:25;-1.80;99.90
24814;DHT22;12904;50.088;11.414;2024-01-15T07:07:51;-1.80;99.90
24814;DHT22;12904;50.088;11.414;2024-01-15T07:10:17;-1.80;99.90
24814;DHT22;12904;50.088;11.414;2024-01-15T07:12:43;-1.80;99.90
24814;DHT22;12904;50.088;11.414;2024-01-15T07:15:09;-1.70;99.90
24814;DHT22;12904;50.088;11.414;2024-01-15T07:17:35;-1.70;99.90
24814;DHT22;12904;50.088;11.414;2024-01-15T07:20:08;-1.70;99.90
24814;DHT22;12904;50.088;11.414;2024-01-15T07:22:35;-1.70;99.90
24814;DHT22;12904;50.088;11.414;2024-01-15T07:25:01;-1.70;99.90
24814;DHT22;12904;50.088;11.414;2024-01-15T07:27:26;-1.70;99.90
24814;DHT22;12904;50.088;11.414;2024-01-15T07:29:52;-1.70;99.90
24814;DHT22;12904;50.088;11.414;2024-01-15T07:32:18;-1.70;99.90
24814;DHT22;12904;50.088;11.414;2024-01-15T07:34:43;-1.70;99.90
24814;DHT22;12904;50.088;11.414;2024-01-15T07:37:09;-1.70;99.90
24814;DHT22;12904;50.088;11.414;2024-01-15T07:39:35;-1.70;99.90
24814;DHT22;12904;50.088;11.414;2024-01-15T07:42:01;-1.70;99.90
24814;DHT22;12904;50.088;11.414;2024-01-15T07:44:27;-1.70;99.90
24814;DHT22;12904;50.088;11.414;2024-01-15T07:46:52;-1.60;99.90
24814;DHT22;12904;50.088;11.414;2024-01-15T07:49:18;-1.60;99.90
24814;DHT22;12904;50.088;11.414;2024-01-15T07:51:44;-1.70;99.90
24814;DHT22;12904;50.088;11.414;2024-01-15T07:54:10;-1.70;99.90
24814;DHT22;12904;50.088;11.414;2024-01-15T07:56:56;-1.60;99.90
24814;DHT22;12904;50.088;11.414;2024-01-15T07:59:22;-1.60;99.90
24814;DHT22;12904;50.088;11.414;2024-01-15T08:01:48;-1.60;99.90
24814;DHT22;12904;50.088;11.414;2024-01-15T08:04:14;-1.60;99.90
24814;DHT22;12904;50.088;11.414;2024-01-15T08:06:39;-1.60;99.90
24814;DHT22;12904;50.088;11.414;2024-01-15T08:09:05;-1.50;99.90
24814;DHT22;12904;50.088;11.414;2024-01-15T08:11:31;-1.50;99.90
24814;DHT22;12904;50.088;11.414;2024-01-15T08:13:56;-1.50;99.90
24814;DHT22;12904;50.088;11.414;2024-01-15T08:16:23;-1.50;99.90
24814;DHT22;12904;50.088;11.414;2024-01-15T08:18:49;-1.40;99.90
24814;DHT22;12904;50.088;11.414;2024-01-15T08:21:15;-1.40;99.90
24814;DHT22;12904;50.088;11.414;2024-01-15T08:23:41;-1.30;99.90
24814;DHT22;12904;50.088;11.414;2024-01-15T08:26:07;-1.30;99.90
24814;DHT22;12904;50.088;11.414;2024-01-15T08:28:33;-1.30;99.90
24814;DHT22;12904;50.088;11.414;2024-01-15T08:30:58;-1.20;99.90
24814;DHT22;12904;50.088;11.414;2024-01-15T08:33:24;-1.20;99.90
24814;DHT22;12904;50.088;11.414;2024-01-15T08:35:49;-1.20;99.90
24814;DHT22;12904;50.088;11.414;2024-01-15T08:38:15;-1.20;99.90
24814;DHT22;12904;50.088;11.414;2024-01-15T08:40:40;-1.20;99.90
24814;DHT22;12904;50.088;11.414;2024-01-15T08:43:06;-1.10;99.90
24814;DHT22;12904;50.088;11.414;2024-01-15T08:45:32;-1.10;99.90
24814;DHT22;12904;50.088;11.414;2024-01-15T08:47:58;-1.10;99.90
24814;DHT22;12904;50.088;11.414;2024-01-15T08:50:24;-1.00;99.90
24814;DHT22;12904;50.088;11.414;2024-01-15T08:52:49;-1.00;99.90
24814;DHT22;12904;50.088;11.414;2024-01-15T08:55:15;-1.00;99.90
24814;DHT22;12904;50.088;11.414;2024-01-15T08:57:40;-1.00;99.90
24814;DHT22;12904;50.088;11.414;2024-01-15T09:00:06;-1.10;99.90
24814;DHT22;12904;50.088;11.414;2024-01-15T09:02:35;-1.10;99.90
24814;DHT22;12904;50.088;11.414;2024-01-15T09:05:01;-1.10;99.90
24814;DHT22;12904;50.088;11.414;2024-01-15T09:07:27;-1.00;99.90
24814;DHT22;12904;50.088;11.414;2024-01-15T09:09:53;-1.10;99.90
24814;DHT22;12904;50.088;11.414;2024-01-15T09:12:19;-1.00;99.90
24814;DHT22;12904;50.088;11.414;2024-01-15T09:14:46;-1.00;99.90
24814;DHT22;12904;50.088;11.414;2024-01-15T09:17:12;-1.00;99.90
24814;DHT22;12904;50.088;11.414;2024-01-15T09:19:38;-0.90;99.90
24814;DHT22;12904;50.088;11.414;2024-01-15T09:22:07;-0.90;99.90
24814;DHT22;12904;50.088;11.414;2024-01-15T09:24:33;-0.80;99.90
24814;DHT22;12904;50.088;11.414;2024-01-15T09:26:58;-0.70;99.90
24814;DHT22;12904;50.088;11.414;2024-01-15T09:29:24;-0.70;99.90
24814;DHT22;12904;50.088;11.414;2024-01-15T09:31:50;-0.70;99.90
24814;DHT22;12904;50.088;11.414;2024-01-15T09:34:16;-0.70;99.90
24814;DHT22;12904;50.088;11.414;2024-01-15T09:36:41;-0.70;99.90
24814;DHT22;12904;50.088;11.414;2024-01-15T09:39:08;-0.70;99.90
24814;DHT22;12904;50.088;11.414;2024-01-15T09:41:38;-0.70;99.90
24814;DHT22;12904;50.088;11.414;2024-01-15T09:44:04;-0.60;99.90
24814;DHT22;12904;50.088;11.414;2024-01-15T09:46:32;-0.60;99.90
24814;DHT22;12904;50.088;11.414;2024-01-15T09:48:58;-0.50;99.90
24814;DHT22;12904;50.088;11.414;2024-01-15T09:51:24;-0.50;99.90
24814;DHT22;12904;50.088;11.414;2024-01-15T09:53:50;-0.50;99.90
24814;DHT22;12904;50.088;11.414;2024-01-15T09:56:17;-0.50;99.90
24814;DHT22;12904;50.088;11.414;2024-01-15T09:58:42;-0.40;99.90
24814;DHT22;12904;50.088;11.414;2024-01-15T10:01:09;-0.50;99.90
24814;DHT22;12904;50.088;11.414;2024-01-15T10:03:35;-0.50;99.90
24814;DHT22;12904;50.088;11.414;2024-01-15T10:06:01;-0.50;99.90
24814;DHT22;12904;50.088;11.414;2024-01-15T10:08:28;-0.60;99.90
24814;DHT22;12904;50.088;11.414;2024-01-15T10:10:53;-0.60;99.90
24814;DHT22;12904;50.088;11.414;2024-01-15T10:13:19;-0.60;99.90
24814;DHT22;12904;50.088;11.414;2024-01-15T10:15:46;-0.70;99.90
24814;DHT22;12904;50.088;11.414;2024-01-15T10:18:15;-0.70;99.90
24814;DHT22;12904;50.088;11.414;2024-01-15T10:20:41;-0.70;99.90
24814;DHT22;12904;50.088;11.414;2024-01-15T10:23:08;-0.70;99.90
24814;DHT22;12904;50.088;11.414;2024-01-15T10:25:35;-0.70;99.90
24814;DHT22;12904;50.088;11.414;2024-01-15T10:28:05;-0.70;99.90
24814;DHT22;12904;50.088;11.414;2024-01-15T10:30:32;-0.70;99.90
24814;DHT22;12904;50.088;11.414;2024-01-15T10:33:02;-0.70;99.90
24814;DHT22;12904;50.088;11.414;2024-01-15T10:35:32;-0.70;99.90
24814;DHT22;12904;50.088;11.414;2024-01-15T10:37:59;-0.70;99.90
24814;DHT22;12904;50.088;11.414;2024-01-15T10:40:25;-0.70;99.90
24814;DHT22;12904;50.088;11.414;2024-01-15T10:42:51;-0.70;99.90
24814;DHT22;12904;50.088;11.414;2024-01-15T10:45:17;-0.80;99.90
24814;DHT22;12904;50.088;11.414;2024-01-15T10:47:43;-0.70;99.90
24814;DHT22;12904;50.088;11.414;2024-01-15T10:50:10;-0.70;99.90
24814;DHT22;12904;50.088;11.414;2024-01-15T10:52:37;-0.80;99.90
24814;DHT22;12904;50.088;11.414;2024-01-15T10:55:03;-0.70;99.90
24814;DHT22;12904;50.088;11.414;2024-01-15T10:57:30;-0.80;99.90
24814;DHT22;12904;50.088;11.414;2024-01-15T10:59:56;-0.70;99.90
24814;DHT22;12904;50.088;11.414;2024-01-15T11:02:22;-0.60;99.90
24814;DHT22;12904;50.088;11.414;2024-01-15T11:04:48;-0.60;99.90
24814;DHT22;12904;50.088;11.414;2024-01-15T11:07:14;-0.60;99.90
24814;DHT22;12904;50.088;11.414;2024-01-15T11:09:39;-0.60;99.90
24814;DHT22;12904;50.088;11.414;2024-01-15T11:12:11;-0.60;99.90
24814;DHT22;12904;50.088;11.414;2024-01-15T11:14:41;-0.60;99.90
24814;DHT22;12904;50.088;11.414;2024-01-15T11:17:10;-0.60;99.90
24814;DHT22;12904;50.088;11.414;2024-01-15T11:19:45;-0.50;99.90
24814;DHT22;12904;50.088;11.414;2024-01-15T11:25:19;-0.50;99.90
24814;DHT22;12904;50.088;11.414;2024-01-15T11:27:51;-0.40;99.90
24814;DHT22;12904;50.088;11.414;2024-01-15T11:30:17;-0.30;99.90
24814;DHT22;12904;50.088;11.414;2024-01-15T11:32:43;-0.30;99.90
24814;DHT22;12904;50.088;11.414;2024-01-15T11:35:10;-0.30;99.90
24814;DHT22;12904;50.088;11.414;2024-01-15T11:40:36;-0.30;99.90
24814;DHT22;12904;50.088;11.414;2024-01-15T11:43:04;-0.30;99.90
24814;DHT22;12904;50.088;11.414;2024-01-15T11:45:30;-0.30;99.90
24814;DHT22;12904;50.088;11.414;2024-01-15T11:48:14;-0.30;99.90
24814;DHT22;12904;50.088;11.414;2024-01-15T11:50:45;-0.30;99.90
24814;DHT22;12904;50.088;11.414;2024-01-15T11:53:33;-0.30;99.90
24814;DHT22;12904;50.088;11.414;2024-01-15T11:56:02;-0.20;99.90
24814;DHT22;12904;50.088;11.414;2024-01-15T11:58:29;-0.20;99.90
24814;DHT22;12904;50.088;11.414;2024-01-15T12:00:55;-0.20;99.90
24814;DHT22;12904;50.088;11.414;2024-01-15T12:03:21;-0.20;99.90
24814;DHT22;12904;50.088;11.414;2024-01-15T12:05:47;-0.20;99.90
24814;DHT22;12904;50.088;11.414;2024-01-15T12:08:13;-0.20;99.90
24814;DHT22;12904;50.088;11.414;2024-01-15T12:10:40;-0.20;99.90
24814;DHT22;12904;50.088;11.414;2024-01-15T12:13:13;-0.30;99.90
24814;DHT22;12904;50.088;11.414;2024-01-15T12:15:41;-0.30;99.90
24814;DHT22;12904;50.088;11.414;2024-01-15T12:18:08;-0.30;99.90
24814;DHT22;12904;50.088;11.414;2024-01-15T12:20:34;-0.30;99.90
24814;DHT22;12904;50.088;11.414;2024-01-15T12:23:01;-0.30;99.90
24814;DHT22;12904;50.088;11.414;2024-01-15T12:25:29;-0.40;99.90
24814;DHT22;12904;50.088;11.414;2024-01-15T12:27:56;-0.40;99.90
24814;DHT22;12904;50.088;11.414;2024-01-15T12:30:22;-0.40;99.90
24814;DHT22;12904;50.088;11.414;2024-01-15T12:32:48;-0.40;99.90
24814;DHT22;12904;50.088;11.414;2024-01-15T12:35:14;-0.40;99.90
24814;DHT22;12904;50.088;11.414;2024-01-15T12:37:41;-0.40;99.90
24814;DHT22;12904;50.088;11.414;2024-01-15T12:40:08;-0.40;99.90
24814;DHT22;12904;50.088;11.414;2024-01-15T12:42:36;-0.30;99.90
24814;DHT22;12904;50.088;11.414;2024-01-15T12:45:02;-0.30;99.90
24814;DHT22;12904;50.088;11.414;2024-01-15T12:47:30;-0.20;99.90
24814;DHT22;12904;50.088;11.414;2024-01-15T12:49:57;-0.20;99.90
24814;DHT22;12904;50.088;11.414;2024-01-15T12:52:23;-0.10;99.90
24814;DHT22;12904;50.088;11.414;2024-01-15T12:54:49;-0.20;99.90
24814;DHT22;12904;50.088;11.414;2024-01-15T12:57:16;-0.10;99.90
24814;DHT22;12904;50.088;11.414;2024-01-15T12:59:42;-0.10;99.90
24814;DHT22;12904;50.088;11.414;2024-01-15T13:02:08;-0.10;99.90
24814;DHT22;12904;50.088;11.414;2024-01-15T13:04:34;-0.10;99.90
24814;DHT22;12904;50.088;11.414;2024-01-15T13:06:59;-0.10;99.90
24814;DHT22;12904;50.088;11.414;2024-01-15T13:09:25;-0.10;99.90
24814;DHT22;12904;50.088;11.414;2024-01-15T13:11:50;0.00;99.90
24814;DHT22;12904;50.088;11.414;2024-01-15T13:14:17;0.00;99.90
24814;DHT22;12904;50.088;11.414;2024-01-15T13:16:43;0.10;99.90
24814;DHT22;12904;50.088;11.414;2024-01-15T13:19:10;0.10;99.90
24814;DHT22;12904;50.088;11.414;2024-01-15T13:21:37;0.10;99.90
24814;DHT22;12904;50.088;11.414;2024-01-15T13:24:03;0.20;99.90
24814;DHT22;12904;50.088;11.414;2024-01-15T13:26:34;0.20;99.90
24814;DHT22;12904;50.088;11.414;2024-01-15T13:29:00;0.20;99.90
24814;DHT22;12904;50.088;11.414;2024-01-15T13:31:27;0.20;99.90
24814;DHT22;12904;50.088;11.414;2024-01-15T13:33:53;0.20;99.90
24814;DHT22;12904;50.088;11.414;2024-01-15T13:36:20;0.10;99.90
24814;DHT22;12904;50.088;11.414;2024-01-15T13:38:46;0.10;99.90
24814;DHT22;12904;50.088;11.414;2024-01-15T13:41:12;0.20;99.90
24814;DHT22;12904;50.088;11.414;2024-01-15T13:43:38;0.20;99.90
24814;DHT22;12904;50.088;11.414;2024-01-15T13:46:03;0.10;99.90
24814;DHT22;12904;50.088;11.414;2024-01-15T13:48:30;0.10;99.90
24814;DHT22;12904;50.088;11.414;2024-01-15T13:50:57;0.10;99.90
24814;DHT22;12904;50.088;11.414;2024-01-15T13:53:23;0.10;99.90
24814;DHT22;12904;50.088;11.414;2024-01-15T13:55:48;0.10;99.90
24814;DHT22;12904;50.088;11.414;2024-01-15T13:58:14;0.10;99.90
24814;DHT22;12904;50.088;11.414;2024-01-15T14:00:40;0.10;99.90
24814;DHT22;12904;50.088;11.414;2024-01-15T14:03:05;0.10;99.90
24814;DHT22;12904;50.088;11.414;2024-01-15T14:05:31;0.10;99.90
24814;DHT22;12904;50.088;11.414;2024-01-15T14:07:56;0.10;99.90
24814;DHT22;12904;50.088;11.414;2024-01-15T14:10:22;0.20;99.90
24814;DHT22;12904;50.088;11.414;2024-01-15T14:12:48;0.20;99.90
24814;DHT22;12904;50.088;11.414;2024-01-15T14:15:14;0.20;99.90
24814;DHT22;12904;50.088;11.414;2024-01-15T14:17:39;0.20;99.90
24814;DHT22;12904;50.088;11.414;2024-01-15T14:20:05;0.30;99.90
24814;DHT22;12904;50.088;11.414;2024-01-15T14:22:31;0.30;99.90
24814;DHT22;12904;50.088;11.414;2024-01-15T14:24:57;0.30;99.90
24814;DHT22;12904;50.088;11.414;2024-01-15T14:27:23;0.20;99.90
24814;DHT22;12904;50.088;11.414;2024-01-15T14:29:49;0.10;99.90
24814;DHT22;12904;50.088;11.414;2024-01-15T14:32:14;0.10;99.90
24814;DHT22;12904;50.088;11.414;2024-01-15T14:34:40;0.10;99.90
24814;DHT22;12904;50.088;11.414;2024-01-15T14:37:05;0.10;99.90
24814;DHT22;12904;50.088;11.414;2024-01-15T14:39:31;0.00;99.90
24814;DHT22;12904;50.088;11.414;2024-01-15T14:41:59;0.10;99.90
24814;DHT22;12904;50.088;11.414;2024-01-15T14:44:26;0.00;99.90
24814;DHT22;12904;50.088;11.414;2024-01-15T14:46:51;0.00;99.90
24814;DHT22;12904;50.088;11.414;2024-01-15T14:49:17;-0.10;99.90
24814;DHT22;12904;50.088;11.414;2024-01-15T14:51:43;-0.10;99.90
24814;DHT22;12904;50.088;11.414;2024-01-15T14:54:10;-0.10;99.90
24814;DHT22;12904;50.088;11.414;2024-01-15T14:56:36;-0.20;99.90
24814;DHT22;12904;50.088;11.414;2024-01-15T14:59:01;-0.20;99.90
24814;DHT22;12904;50.088;11.414;2024-01-15T15:01:27;-0.20;99.90
24814;DHT22;12904;50.088;11.414;2024-01-15T15:03:53;-0.20;99.90
24814;DHT22;12904;50.088;11.414;2024-01-15T15:06:18;-0.20;99.90
24814;DHT22;12904;50.088;11.414;2024-01-15T15:08:46;-0.20;99.90
24814;DHT22;12904;50.088;11.414;2024-01-15T15:11:11;-0.20;99.90
24814;DHT22;12904;50.088;11.414;2024-01-15T15:13:37;-0.20;99.90
24814;DHT22;12904;50.088;11.414;2024-01-15T15:16:03;-0.20;99.90
24814;DHT22;12904;50.088;11.414;2024-01-15T15:18:28;-0.20;99.90